createdAt,value
2023-05-02T00:00:19.152Z,12.17
2023-05-02T00:02:46.930Z,10.10
2023-05-02T00:05:14.390Z,11.97
2023-05-02T00:07:42.064Z,12.70
2023-05-02T00:10:11.121Z,11.40
2023-05-02T00:12:38.745Z,9.97
2023-05-02T00:15:06.607Z,8.87
2023-05-02T00:17:34.018Z,9.73
2023-05-02T00:20:01.808Z,9.53
2023-05-02T00:22:29.857Z,12.13
2023-05-02T00:24:57.724Z,9.87
2023-05-02T00:27:26.558Z,8.53
2023-05-02T00:29:54.260Z,10.30
2023-05-02T00:32:21.686Z,10.50
2023-05-02T00:34:49.179Z,10.80
2023-05-02T00:37:16.630Z,8.63
2023-05-02T00:39:44.964Z,10.53
2023-05-02T00:42:12.469Z,11.57
2023-05-02T00:44:41.151Z,9.40
2023-05-02T00:47:08.492Z,14.03
2023-05-02T00:49:35.849Z,9.83
2023-05-02T00:52:03.685Z,11.70
2023-05-02T00:54:31.870Z,11.20
2023-05-02T00:56:59.213Z,10.23
2023-05-02T00:59:27.694Z,10.33
2023-05-02T01:02:02.028Z,10.53
2023-05-02T01:04:32.850Z,10.43
2023-05-02T01:07:07.412Z,9.83
2023-05-02T01:09:40.352Z,9.43
2023-05-02T01:12:11.676Z,9.40
2023-05-02T01:14:42.081Z,10.10
2023-05-02T01:17:13.009Z,9.27
2023-05-02T01:19:42.813Z,8.67
2023-05-02T01:22:11.541Z,9.87
2023-05-02T01:24:42.103Z,9.40
2023-05-02T01:27:14.878Z,7.90
2023-05-02T01:29:44.567Z,8.00
2023-05-02T01:32:13.043Z,9.80
2023-05-02T01:34:41.677Z,11.13
2023-05-02T01:37:12.161Z,9.97
2023-05-02T01:39:40.922Z,10.90
2023-05-02T01:42:08.358Z,11.47
2023-05-02T01:44:36.756Z,11.27
2023-05-02T01:47:07.363Z,8.53
2023-05-02T01:49:35.515Z,9.77
2023-05-02T01:52:05.966Z,8.53
2023-05-02T01:54:34.451Z,8.93
2023-05-02T01:57:03.791Z,9.47
2023-05-02T01:59:32.618Z,9.87
2023-05-02T02:02:02.631Z,9.70
2023-05-02T02:04:32.345Z,11.83
2023-05-02T02:07:03.189Z,10.43
2023-05-02T02:09:30.755Z,10.13
2023-05-02T02:12:04.564Z,9.13
2023-05-02T02:14:35.263Z,8.80
2023-05-02T02:17:06.198Z,10.07
2023-05-02T02:19:35.236Z,10.70
2023-05-02T02:22:04.042Z,7.77
2023-05-02T02:24:31.805Z,11.50
2023-05-02T02:26:59.154Z,9.03
2023-05-02T02:29:26.573Z,10.80
2023-05-02T02:31:53.933Z,9.90
2023-05-02T02:34:22.015Z,9.20
2023-05-02T02:36:54.329Z,11.43
2023-05-02T02:39:26.948Z,9.57
2023-05-02T02:42:00.146Z,8.27
2023-05-02T02:44:33.412Z,11.03
2023-05-02T02:47:02.765Z,10.77
2023-05-02T02:49:33.867Z,8.23
2023-05-02T02:52:06.467Z,8.37
2023-05-02T02:54:36.011Z,9.80
2023-05-02T02:57:07.107Z,9.87
2023-05-02T02:59:36.179Z,9.33
2023-05-02T03:02:06.630Z,8.57
2023-05-02T03:04:34.942Z,14.60
2023-05-02T03:07:03.731Z,7.27
2023-05-02T03:09:41.093Z,10.30
2023-05-02T03:12:09.846Z,9.67
2023-05-02T03:14:39.971Z,8.37
2023-05-02T03:17:08.470Z,6.87
2023-05-02T03:19:37.193Z,7.93
2023-05-02T03:22:06.925Z,10.33
2023-05-02T03:24:36.670Z,7.27
2023-05-02T03:27:04.996Z,6.60
2023-05-02T03:29:39.161Z,6.30
2023-05-02T03:32:06.771Z,8.23
2023-05-02T03:34:35.715Z,8.60
2023-05-02T03:37:03.148Z,6.83
2023-05-02T03:39:32.725Z,6.90
2023-05-02T03:42:01.645Z,5.97
2023-05-02T03:44:28.983Z,6.50
2023-05-02T03:46:56.537Z,6.30
2023-05-02T03:49:24.438Z,5.70
2023-05-02T03:51:53.591Z,7.53
2023-05-02T03:54:26.037Z,9.63
2023-05-02T03:56:55.927Z,5.83
2023-05-02T03:59:29.473Z,6.50
2023-05-02T04:01:57.521Z,6.70
2023-05-02T04:04:33.619Z,7.93
2023-05-02T04:07:01.574Z,6.53
2023-05-02T04:09:30.016Z,8.47
2023-05-02T04:12:05.135Z,6.77
2023-05-02T04:14:34.269Z,5.90
2023-05-02T04:17:02.426Z,6.50
2023-05-02T04:19:37.684Z,6.50
2023-05-02T04:22:05.682Z,6.50
2023-05-02T04:24:36.918Z,4.37
2023-05-02T04:27:05.605Z,8.37
2023-05-02T04:29:33.441Z,8.50
2023-05-02T04:32:05.292Z,7.37
2023-05-02T04:34:32.865Z,5.70
2023-05-02T04:37:00.933Z,7.43
2023-05-02T04:39:28.515Z,7.53
2023-05-02T04:42:02.993Z,9.30
2023-05-02T04:44:35.635Z,6.83
2023-05-02T04:47:04.538Z,7.93
2023-05-02T04:49:32.077Z,8.90
2023-05-02T04:51:59.847Z,6.40
2023-05-02T04:54:27.939Z,8.10
2023-05-02T04:56:55.661Z,6.00
2023-05-02T04:59:24.660Z,7.07
2023-05-02T05:01:53.418Z,5.83
2023-05-02T05:04:21.147Z,7.73
2023-05-02T05:06:49.231Z,6.23
2023-05-02T05:09:17.509Z,7.27
2023-05-02T05:11:46.181Z,7.83
2023-05-02T05:14:14.862Z,9.20
2023-05-02T05:16:45.212Z,8.37
2023-05-02T05:19:14.773Z,6.37
2023-05-02T05:21:42.178Z,6.20
2023-05-02T05:24:10.526Z,6.73
2023-05-02T05:26:38.342Z,7.43
2023-05-02T05:29:05.799Z,6.93
2023-05-02T05:31:39.032Z,7.20
2023-05-02T05:34:07.444Z,8.03
2023-05-02T05:36:38.464Z,8.40
2023-05-02T05:39:06.156Z,8.10
2023-05-02T05:41:35.454Z,6.50
2023-05-02T05:44:06.509Z,6.70
2023-05-02T05:46:33.968Z,6.67
2023-05-02T05:49:02.785Z,7.13
2023-05-02T05:51:31.575Z,6.27
2023-05-02T05:54:02.107Z,7.63
2023-05-02T05:56:29.549Z,6.97
2023-05-02T05:59:04.068Z,6.90
2023-05-02T06:01:31.662Z,6.37
2023-05-02T06:03:59.945Z,4.53
2023-05-02T06:06:28.119Z,8.53
2023-05-02T06:08:55.738Z,5.30
2023-05-02T06:11:26.181Z,5.63
2023-05-02T06:13:53.831Z,6.10
2023-05-02T06:16:22.043Z,7.30
2023-05-02T06:18:51.499Z,6.17
2023-05-02T06:21:18.869Z,5.73
2023-05-02T06:23:46.902Z,9.13
2023-05-02T06:26:14.298Z,7.27
2023-05-02T06:28:44.241Z,5.33
2023-05-02T06:31:11.730Z,4.87
2023-05-02T06:33:39.125Z,6.03
2023-05-02T06:36:06.614Z,5.70
2023-05-02T06:38:33.976Z,5.33
2023-05-02T06:41:01.311Z,5.53
2023-05-02T06:43:28.646Z,6.13
2023-05-02T06:45:57.706Z,4.50
2023-05-02T06:48:25.405Z,4.37
2023-05-02T06:50:53.411Z,4.37
2023-05-02T06:53:20.799Z,5.97
2023-05-02T06:55:48.504Z,7.20
2023-05-02T06:58:16.169Z,5.13
2023-05-02T07:00:43.764Z,5.90
2023-05-02T07:03:12.642Z,4.70
2023-05-02T07:05:40.053Z,7.43
2023-05-02T07:08:07.830Z,5.53
2023-05-02T07:10:35.530Z,7.33
2023-05-02T07:13:02.884Z,6.57
2023-05-02T07:15:30.383Z,4.00
2023-05-02T07:17:57.930Z,9.20
2023-05-02T07:20:26.703Z,5.30
2023-05-02T07:22:54.546Z,5.37
2023-05-02T07:25:22.122Z,4.63
2023-05-02T07:27:49.453Z,4.77
2023-05-02T07:30:16.799Z,8.13
2023-05-02T07:32:44.138Z,5.90
2023-05-02T07:35:11.479Z,6.00
2023-05-02T07:37:40.139Z,6.37
2023-05-02T07:40:09.408Z,5.10
2023-05-02T07:42:36.999Z,5.13
2023-05-02T07:45:04.683Z,7.97
2023-05-02T07:47:32.057Z,5.43
2023-05-02T07:49:59.639Z,7.90
2023-05-02T07:52:27.184Z,5.20
2023-05-02T07:54:56.312Z,5.70
2023-05-02T07:57:23.757Z,7.30
2023-05-02T07:59:51.099Z,5.37
2023-05-02T08:02:20.210Z,7.07
2023-05-02T08:04:47.999Z,5.70
2023-05-02T08:07:15.493Z,8.07
2023-05-02T08:09:42.923Z,5.20
2023-05-02T08:12:11.574Z,5.20
2023-05-02T08:14:39.070Z,4.30
2023-05-02T08:17:06.422Z,6.33
2023-05-02T08:19:33.759Z,4.33
2023-05-02T08:22:01.111Z,6.40
2023-05-02T08:24:28.490Z,5.30
2023-05-02T08:26:55.806Z,5.27
2023-05-02T08:29:24.833Z,7.70
2023-05-02T08:31:52.210Z,7.23
2023-05-02T08:34:19.641Z,8.73
2023-05-02T08:36:47.696Z,7.40
2023-05-02T08:39:15.151Z,5.80
2023-05-02T08:41:42.594Z,5.90
2023-05-02T08:44:10.364Z,5.30
2023-05-02T08:46:41.548Z,6.33
2023-05-02T08:49:11.330Z,6.00
2023-05-02T08:51:40.423Z,5.10
2023-05-02T08:54:10.266Z,6.90
2023-05-02T08:56:38.464Z,6.80
2023-05-02T08:59:08.101Z,5.90
2023-05-02T09:01:36.737Z,5.03
2023-05-02T09:04:05.567Z,7.07
2023-05-02T09:06:33.181Z,5.40
2023-05-02T09:09:01.100Z,8.93
2023-05-02T09:11:28.626Z,4.77
2023-05-02T09:13:56.094Z,6.03
2023-05-02T09:16:27.176Z,6.53
2023-05-02T09:19:00.034Z,9.10
2023-05-02T09:21:36.935Z,6.43
2023-05-02T09:24:16.155Z,5.93
2023-05-02T09:26:44.486Z,7.77
2023-05-02T09:29:11.832Z,7.33
2023-05-02T09:34:13.013Z,7.73
2023-05-02T09:36:42.177Z,11.63
2023-05-02T09:39:11.050Z,10.07
2023-05-02T09:41:40.832Z,7.93
2023-05-02T09:44:10.396Z,7.87
2023-05-02T09:46:40.672Z,9.00
2023-05-02T09:49:08.389Z,11.00
2023-05-02T09:51:35.719Z,10.40
2023-05-02T09:54:04.544Z,10.57
2023-05-02T09:56:31.937Z,11.47
2023-05-02T09:59:15.622Z,9.40
2023-05-02T10:01:43.241Z,9.20
2023-05-02T10:04:15.257Z,9.97
2023-05-02T10:06:43.137Z,10.63
2023-05-02T10:09:14.994Z,11.07
2023-05-02T10:11:45.240Z,9.80
2023-05-02T10:14:13.170Z,10.07
2023-05-02T10:16:46.939Z,10.97
2023-05-02T10:19:19.752Z,8.90
2023-05-02T10:21:47.726Z,9.17
2023-05-02T10:24:16.749Z,8.40
2023-05-02T10:26:44.619Z,9.47
2023-05-02T10:29:12.324Z,7.70
2023-05-02T10:31:42.323Z,9.60
2023-05-02T10:34:12.029Z,10.53
2023-05-02T10:36:39.450Z,10.70
2023-05-02T10:39:07.580Z,9.57
2023-05-02T10:41:36.473Z,11.50
2023-05-02T10:44:07.638Z,11.03
2023-05-02T10:46:36.039Z,8.57
2023-05-02T10:49:04.453Z,14.40
2023-05-02T10:51:32.289Z,11.00
2023-05-02T10:54:18.554Z,12.33
2023-05-02T10:57:12.762Z,13.77
2023-05-02T10:59:42.677Z,10.93
2023-05-02T11:02:25.323Z,12.17
2023-05-02T11:05:04.333Z,11.87
2023-05-02T11:07:32.514Z,9.53
2023-05-02T11:10:18.641Z,10.70
2023-05-02T11:12:47.288Z,11.00
2023-05-02T11:15:16.097Z,11.80
2023-05-02T11:18:02.356Z,10.10
2023-05-02T11:20:30.362Z,9.43
2023-05-02T11:22:58.857Z,10.23
2023-05-02T11:25:30.934Z,10.03
2023-05-02T11:27:58.452Z,10.23
2023-05-02T11:30:38.941Z,11.53
2023-05-02T11:33:17.321Z,12.73
2023-05-02T11:35:46.630Z,8.10
2023-05-02T11:38:15.434Z,11.40
2023-05-02T11:40:51.038Z,11.47
2023-05-02T11:43:19.340Z,12.03
2023-05-02T11:45:48.390Z,10.93
2023-05-02T11:48:18.157Z,11.10
2023-05-02T11:50:49.775Z,9.07
2023-05-02T11:53:18.513Z,10.23
2023-05-02T11:55:47.397Z,10.53
2023-05-02T11:58:15.949Z,10.00
2023-05-02T12:00:46.554Z,8.33
2023-05-02T12:03:22.375Z,9.37
2023-05-02T12:05:50.395Z,10.07
2023-05-02T12:08:21.856Z,9.47
2023-05-02T12:10:49.758Z,7.73
2023-05-02T12:13:17.816Z,8.13
2023-05-02T12:15:45.482Z,8.83
2023-05-02T12:18:13.774Z,10.30
2023-05-02T12:20:43.281Z,8.77
2023-05-02T12:23:11.171Z,7.37
2023-05-02T12:25:39.637Z,9.40
2023-05-02T12:28:07.578Z,8.80
2023-05-02T12:30:35.943Z,8.47
2023-05-02T12:33:03.911Z,7.90
2023-05-02T12:35:32.183Z,8.23
2023-05-02T12:38:10.468Z,8.03
2023-05-02T12:40:37.839Z,8.43
2023-05-02T12:43:07.700Z,8.17
2023-05-02T12:45:35.361Z,7.67
2023-05-02T12:48:03.093Z,7.47
2023-05-02T12:50:37.688Z,8.00
2023-05-02T12:53:06.274Z,10.07
2023-05-02T12:55:34.993Z,7.77
2023-05-02T12:58:02.765Z,9.70
2023-05-02T13:00:30.323Z,9.13
2023-05-02T13:02:57.888Z,14.07
2023-05-02T13:05:26.122Z,9.10
2023-05-02T13:07:56.356Z,9.87
2023-05-02T13:10:25.115Z,7.97
2023-05-02T13:12:53.821Z,7.33
2023-05-02T13:15:21.289Z,9.53
2023-05-02T13:17:48.983Z,9.23
2023-05-02T13:20:16.470Z,9.13
2023-05-02T13:22:44.132Z,9.10
2023-05-02T13:25:12.171Z,8.67
2023-05-02T13:27:41.132Z,7.90
2023-05-02T13:30:11.818Z,8.63
2023-05-02T13:32:40.043Z,8.17
2023-05-02T13:35:08.454Z,8.90
2023-05-02T13:37:35.954Z,9.47
2023-05-02T13:40:04.876Z,7.67
2023-05-02T13:42:32.467Z,7.60
2023-05-02T13:44:59.864Z,6.77
2023-05-02T13:47:28.649Z,7.00
2023-05-02T13:49:56.045Z,9.60
2023-05-02T13:52:23.472Z,6.67
2023-05-02T13:54:50.814Z,7.67
2023-05-02T13:57:18.192Z,8.20
2023-05-02T13:59:45.540Z,7.20
2023-05-02T14:02:12.875Z,7.80
2023-05-02T14:04:41.815Z,8.13
2023-05-02T14:07:09.156Z,8.83
2023-05-02T14:09:36.498Z,11.00
2023-05-02T14:12:03.935Z,10.23
2023-05-02T14:14:31.285Z,8.80
2023-05-02T14:16:59.705Z,6.60
2023-05-02T14:19:27.185Z,6.47
2023-05-02T14:21:55.955Z,6.27
2023-05-02T14:24:23.613Z,7.43
2023-05-02T14:26:51.286Z,7.67
2023-05-02T14:29:19.845Z,7.27
2023-05-02T14:31:47.299Z,7.93
2023-05-02T14:34:14.844Z,7.90
2023-05-02T14:36:42.391Z,6.63
2023-05-02T14:39:11.228Z,7.07
2023-05-02T14:41:38.585Z,7.47
2023-05-02T14:44:06.079Z,7.50
2023-05-02T14:46:33.429Z,8.23
2023-05-02T14:49:01.031Z,6.90
2023-05-02T14:51:28.535Z,8.37
2023-05-02T14:53:55.917Z,8.53
2023-05-02T14:56:25.769Z,8.10
2023-05-02T14:58:53.245Z,8.30
2023-05-02T15:01:21.082Z,7.93
2023-05-02T15:04:05.292Z,7.43
2023-05-02T15:06:34.955Z,8.60
2023-05-02T15:09:02.824Z,8.23
2023-05-02T15:11:31.623Z,8.17
2023-05-02T15:13:59.731Z,7.73
2023-05-02T15:16:27.779Z,9.67
2023-05-02T15:18:55.261Z,7.77
2023-05-02T15:21:22.963Z,10.97
2023-05-02T15:23:50.633Z,9.03
2023-05-02T15:26:18.191Z,7.20
2023-05-02T15:28:46.884Z,8.33
2023-05-02T15:31:14.304Z,7.37
2023-05-02T15:33:41.704Z,6.13
2023-05-02T15:36:09.333Z,9.10
2023-05-02T15:38:39.359Z,8.17
2023-05-02T15:41:07.290Z,7.37
2023-05-02T15:43:34.715Z,6.63
2023-05-02T15:46:03.591Z,7.57
2023-05-02T15:48:32.996Z,8.70
2023-05-02T15:51:00.480Z,7.07
2023-05-02T15:53:27.859Z,8.00
2023-05-02T15:55:55.682Z,9.83
2023-05-02T15:58:23.239Z,7.07
2023-05-02T16:00:51.833Z,8.97
2023-05-02T16:03:20.734Z,6.87
2023-05-02T16:05:48.164Z,7.47
2023-05-02T16:08:15.533Z,7.37
2023-05-02T16:10:43.409Z,5.93
2023-05-02T16:13:10.926Z,8.67
2023-05-02T16:15:38.373Z,6.43
2023-05-02T16:18:05.859Z,8.43
2023-05-02T16:20:36.676Z,5.90
2023-05-02T16:23:04.450Z,5.70
2023-05-02T16:25:32.652Z,5.33
2023-05-02T16:28:00.108Z,5.73
2023-05-02T16:30:28.098Z,4.73
2023-05-02T16:32:56.489Z,8.33
2023-05-02T16:35:23.869Z,6.37
2023-05-02T16:37:52.697Z,4.27
2023-05-02T16:40:20.111Z,5.60
2023-05-02T16:42:47.483Z,5.53
2023-05-02T16:45:16.013Z,6.03
2023-05-02T16:47:43.472Z,6.53
2023-05-02T16:50:11.169Z,6.67
2023-05-02T16:52:38.853Z,5.83
2023-05-02T16:55:08.753Z,7.63
2023-05-02T16:57:36.500Z,5.17
2023-05-02T17:00:04.505Z,6.87
2023-05-02T17:02:32.323Z,5.07
2023-05-02T17:04:59.801Z,5.77
2023-05-02T17:07:27.251Z,5.90
2023-05-02T17:09:54.598Z,7.67
2023-05-02T17:12:23.318Z,7.70
2023-05-02T17:14:51.615Z,6.60
2023-05-02T17:17:22.627Z,6.60
2023-05-02T17:19:50.702Z,8.07
2023-05-02T17:22:18.867Z,6.33
2023-05-02T17:24:48.247Z,6.90
2023-05-02T17:27:15.740Z,7.13
2023-05-02T17:29:44.884Z,7.50
2023-05-02T17:32:14.664Z,5.33
2023-05-02T17:34:43.120Z,6.67
2023-05-02T17:37:10.621Z,6.67
2023-05-02T17:39:38.029Z,4.97
2023-05-02T17:42:05.540Z,7.80
2023-05-02T17:44:35.911Z,9.23
2023-05-02T17:47:04.925Z,3.70
2023-05-02T17:49:33.925Z,8.10
2023-05-02T17:52:01.371Z,6.87
2023-05-02T17:54:28.851Z,8.47
2023-05-02T17:56:57.022Z,5.47
2023-05-02T17:59:24.421Z,4.17
2023-05-02T18:01:51.885Z,8.10
2023-05-02T18:04:20.688Z,5.40
2023-05-02T18:06:48.219Z,8.23
2023-05-02T18:09:15.692Z,5.83
2023-05-02T18:11:43.835Z,5.10
2023-05-02T18:14:11.618Z,4.00
2023-05-02T18:16:39.028Z,4.57
2023-05-02T18:19:06.798Z,4.87
2023-05-02T18:21:39.992Z,6.10
2023-05-02T18:24:07.763Z,5.63
2023-05-02T18:26:35.558Z,5.07
2023-05-02T18:29:03.044Z,12.93
2023-05-02T18:31:30.955Z,5.00
2023-05-02T18:33:58.860Z,6.30
2023-05-02T18:36:27.058Z,5.73
2023-05-02T18:38:56.469Z,3.60
2023-05-02T18:41:23.987Z,4.97
2023-05-02T18:43:51.329Z,5.70
2023-05-02T18:46:18.727Z,8.93
2023-05-02T18:48:46.379Z,7.73
2023-05-02T18:51:13.814Z,8.47
2023-05-02T18:53:41.271Z,5.00
2023-05-02T18:56:14.301Z,5.80
2023-05-02T18:58:42.012Z,3.60
2023-05-02T19:01:13.154Z,6.60
2023-05-02T19:03:40.812Z,6.60
2023-05-02T19:06:08.392Z,5.03
2023-05-02T19:08:35.955Z,7.77
2023-05-02T19:11:04.038Z,5.33
2023-05-02T19:13:32.796Z,7.00
2023-05-02T19:16:00.912Z,4.87
2023-05-02T19:18:28.315Z,10.57
2023-05-02T19:20:55.988Z,4.47
2023-05-02T19:23:23.368Z,4.80
2023-05-02T19:25:51.118Z,5.73
2023-05-02T19:28:19.679Z,4.33
2023-05-02T19:30:48.367Z,4.97
2023-05-02T19:33:15.710Z,5.00
2023-05-02T19:35:43.047Z,7.03
2023-05-02T19:38:10.729Z,7.80
2023-05-02T19:40:38.084Z,5.63
2023-05-02T19:43:06.265Z,5.23
2023-05-02T19:45:33.662Z,5.50
2023-05-02T19:48:02.516Z,5.90
2023-05-02T19:50:30.020Z,5.33
2023-05-02T19:52:58.002Z,5.20
2023-05-02T19:55:25.375Z,5.97
2023-05-02T19:57:52.794Z,5.97
2023-05-02T20:00:20.546Z,7.33
2023-05-02T20:02:50.636Z,8.77
2023-05-02T20:05:20.437Z,5.43
2023-05-02T20:07:47.819Z,3.87
2023-05-02T20:10:15.295Z,5.17
2023-05-02T20:12:44.716Z,4.40
2023-05-02T20:15:12.397Z,5.30
2023-05-02T20:17:40.007Z,4.80
2023-05-02T20:20:08.436Z,7.77
2023-05-02T20:22:37.323Z,5.40
2023-05-02T20:25:05.052Z,5.63
2023-05-02T20:27:32.558Z,2.47
2023-05-02T20:30:00.325Z,4.10
2023-05-02T20:32:27.959Z,4.40
2023-05-02T20:34:55.425Z,4.53
2023-05-02T20:37:23.429Z,6.13
2023-05-02T20:39:52.176Z,7.77
2023-05-02T20:42:23.237Z,5.80
2023-05-02T20:44:54.484Z,8.87
2023-05-02T20:47:22.174Z,6.10
2023-05-02T20:49:49.503Z,4.77
2023-05-02T20:52:16.855Z,5.47
2023-05-02T20:54:44.627Z,3.20
2023-05-02T20:57:13.764Z,5.60
2023-05-02T20:59:41.210Z,5.50
2023-05-02T21:02:08.747Z,8.97
2023-05-02T21:04:36.186Z,5.17
2023-05-02T21:07:04.053Z,6.13
2023-05-02T21:09:31.470Z,6.93
2023-05-02T21:11:58.813Z,5.37
2023-05-02T21:14:27.691Z,5.40
2023-05-02T21:16:55.040Z,4.27
2023-05-02T21:19:22.492Z,6.50
2023-05-02T21:21:49.843Z,6.77
2023-05-02T21:24:17.220Z,5.27
2023-05-02T21:26:44.710Z,6.57
2023-05-02T21:29:13.690Z,8.03
2023-05-02T21:31:42.402Z,5.40
2023-05-02T21:34:09.868Z,6.97
2023-05-02T21:36:37.745Z,4.13
2023-05-02T21:39:05.482Z,5.90
2023-05-02T21:41:32.870Z,5.10
2023-05-02T21:44:00.197Z,7.60
2023-05-02T21:46:27.633Z,4.50
2023-05-02T21:48:56.588Z,7.33
2023-05-02T21:51:23.917Z,6.27
2023-05-02T21:53:53.224Z,7.60
2023-05-02T21:56:20.590Z,7.07
2023-05-02T21:58:49.590Z,5.10
2023-05-02T22:01:17.166Z,5.37
2023-05-02T22:03:44.585Z,4.50
2023-05-02T22:06:13.394Z,6.10
2023-05-02T22:08:41.231Z,5.93
2023-05-02T22:11:09.463Z,5.53
2023-05-02T22:13:37.191Z,4.87
2023-05-02T22:16:04.769Z,6.80
2023-05-02T22:18:32.263Z,7.23
2023-05-02T22:20:59.695Z,3.70
2023-05-02T22:23:28.832Z,2.93
2023-05-02T22:25:57.398Z,7.33
2023-05-02T22:28:24.747Z,3.73
2023-05-02T22:30:52.121Z,5.10
2023-05-02T22:33:19.445Z,5.60
2023-05-02T22:35:46.942Z,4.73
2023-05-02T22:38:15.517Z,7.87
2023-05-02T22:40:44.250Z,4.63
2023-05-02T22:43:11.955Z,4.83
2023-05-02T22:45:39.420Z,7.10
2023-05-02T22:48:07.501Z,5.33
2023-05-02T22:50:34.861Z,3.40
2023-05-02T22:53:03.742Z,5.90
2023-05-02T22:55:31.623Z,7.47
2023-05-02T22:58:00.758Z,4.27
2023-05-02T23:00:28.133Z,6.00
2023-05-02T23:02:56.222Z,5.97
2023-05-02T23:05:23.739Z,4.97
2023-05-02T23:07:51.110Z,5.07
2023-05-02T23:10:18.450Z,5.57
2023-05-02T23:12:45.816Z,7.33
2023-05-02T23:15:14.511Z,6.93
2023-05-02T23:17:42.419Z,5.97
2023-05-02T23:20:10.794Z,5.80
2023-05-02T23:22:40.479Z,6.70
2023-05-02T23:25:08.557Z,8.10
2023-05-02T23:27:35.886Z,8.77
2023-05-02T23:30:04.011Z,5.83
2023-05-02T23:32:32.973Z,7.27
2023-05-02T23:35:01.285Z,5.50
2023-05-02T23:37:29.092Z,9.17
2023-05-02T23:39:58.059Z,6.17
2023-05-02T23:42:25.450Z,10.13
2023-05-02T23:44:53.690Z,7.37
2023-05-02T23:47:22.780Z,8.13
2023-05-02T23:49:51.472Z,8.33
2023-05-02T23:52:18.838Z,9.67
2023-05-02T23:54:46.439Z,9.33
2023-05-02T23:57:13.913Z,6.13
2023-05-02T23:59:41.577Z,8.97
